Hatsu Elite — VSJG7 — position and weather

sailwx.info

Track history (hours):
 
Tides and Currents Weather Stations Pressure Air Temp Water Temp Dewpoint Dewpoint Depression Visibility Wind Speed Wind Dir Waves Ship Positions

Hatsu Elite

Last reported at 2018-Jun-14 08:15 UTC. Time now 2018-Jun-19 01:05 UTC.
Position N 23°10' E 117°26'.

Type: Ship (hazmat cat D). MMSI: 235554000.

Date/timePositionNaut miles runAvg speedWind from/ knotsBaromVisibWave heightAir tempDewpointWater temp
2018-Jun-14 08:15N 23°10' E 117°26'311.0
2018-Jun-14 07:57N 23°12' E 117°29'611.2
2018-Jun-14 07:27N 23°15' E 117°34'511.2
2018-Jun-14 06:59N 23°18' E 117°39'511.3
2018-Jun-14 06:30N 23°20' E 117°44'611.1
2018-Jun-14 06:00N 23°23' E 117°49'611.2
2018-Jun-14 05:30N 23°27' E 117°54'611.5
2018-Jun-14 05:00N 23°30' E 117°60'612.1
2018-Jun-14 04:28N 23°33' E 118°05'1211.4
2018-Jun-14 03:23N 23°44' E 118°12'411.4
2018-Jun-14 03:00N 23°48' E 118°14'611.3
2018-Jun-14 02:29N 23°53' E 118°16'1010.2
2018-Jun-14 01:29N 24°03' E 118°20'611.4
2018-Jun-14 00:57N 24°09' E 118°20'511.3
2018-Jun-14 00:30N 24°13' E 118°17'5 9.9
2018-Jun-14 00:00N 24°17' E 118°13'510.5
2018-Jun-13 23:30N 24°21' E 118°09'5 9.3
2018-Jun-13 23:00N 24°24' E 118°06'510.7
2018-Jun-13 22:30N 24°27' E 118°01'0 0.5
2018-Jun-13 21:55N 24°27' E 118°00'0 0.0
2018-Jun-13 21:28N 24°27' E 118°00'0 0.0
2018-Jun-13 20:58N 24°27' E 118°00'0 0.0
2018-Jun-13 20:28N 24°27' E 118°00'0 0.0
2018-Jun-13 19:58N 24°27' E 118°00'0 0.0
2018-Jun-13 19:28N 24°27' E 118°00'0 0.0
2018-Jun-13 18:58N 24°27' E 118°00'0 0.0
2018-Jun-13 18:28N 24°27' E 118°00'0 0.0
2018-Jun-13 17:58N 24°27' E 118°00'0 0.0
2018-Jun-13 17:25N 24°27' E 118°00'0 0.0
2018-Jun-13 16:58N 24°27' E 118°00'0 0.0
2018-Jun-13 16:28N 24°27' E 118°00'0 0.0
2018-Jun-13 15:55N 24°27' E 118°00'0 0.0
2018-Jun-13 15:28N 24°27' E 118°00'0 0.0
2018-Jun-13 14:58N 24°27' E 118°00'0 0.0
2018-Jun-13 14:28N 24°27' E 118°00'0 0.0
2018-Jun-13 13:58N 24°27' E 118°00'0 0.0
2018-Jun-13 13:28N 24°27' E 118°00'0 0.0
2018-Jun-13 12:58N 24°27' E 118°00'0 0.0
2018-Jun-13 12:28N 24°27' E 118°00'0 0.0
2018-Jun-13 11:58N 24°27' E 118°00'0 0.0
2018-Jun-13 11:30N 24°27' E 118°00'2 3.5
2018-Jun-13 11:00N 24°26' E 118°02'611.7
2018-Jun-13 10:30N 24°23' E 118°08'3 6.6
2018-Jun-13 10:00N 24°20' E 118°10'3 5.9
2018-Jun-13 09:30N 24°19' E 118°13'3 6.1
2018-Jun-13 08:59N 24°18' E 118°16'3 5.9
2018-Jun-13 08:30N 24°18' E 118°19'3 5.9
2018-Jun-13 08:00N 24°17' E 118°22'2 4.2
2018-Jun-13 07:30N 24°17' E 118°25'3 5.5
2018-Jun-13 07:00N 24°17' E 118°28'3 5.5
2018-Jun-13 06:29N 24°17' E 118°31'3 5.6
2018-Jun-13 06:00N 24°17' E 118°34'3 6.7
2018-Jun-13 05:30N 24°18' E 118°37'4 7.5
2018-Jun-13 05:00N 24°20' E 118°41'4 7.3
2018-Jun-13 04:30N 24°21' E 118°45'63 9.5
2018-Jun-12 21:53N 24°50' E 119°47'90 6.1
2018-Jun-12 07:07N 25°10' E 121°23'0 0.0
2018-Jun-12 06:46N 25°10' E 121°23'0 0.0
2018-Jun-12 05:01N 25°10' E 121°23'0 0.1
2018-Jun-12 04:58N 25°10' E 121°23'0 0.0
2018-Jun-11 18:28N 25°10' E 121°23'0 0.0
2018-Jun-11 16:43N 25°10' E 121°23'0 0.0
2018-Jun-11 16:28N 25°10' E 121°23'0 0.0
2018-Jun-11 15:58N 25°10' E 121°23'0 0.0
2018-Jun-11 15:25N 25°10' E 121°23'0 0.0
2018-Jun-11 14:58N 25°10' E 121°23'  
2018-Jun-04 12:00N 50°12' E 157°18'   280 / 151015.0 5.4 6.0 3.6
Track history (hours):
 
Tides and Currents Weather Stations Pressure Air Temp Water Temp Dewpoint Dewpoint Depression Visibility Wind Speed Wind Dir Waves Ship Positions

Hatsu Elite

Last reported at 2018-Jun-14 08:15 UTC. Time now 2018-Jun-19 01:05 UTC.
Position N 23°10' E 117°26'.

Type: Ship (hazmat cat D). MMSI: 235554000.

Date/timePositionNaut miles runAvg speedWind from/ knotsBaromVisibWave heightAir tempDewpointWater temp
2018-Jun-14 08:15N 23°10' E 117°26'311.0
2018-Jun-14 07:57N 23°12' E 117°29'611.2
2018-Jun-14 07:27N 23°15' E 117°34'511.2
2018-Jun-14 06:59N 23°18' E 117°39'511.3
2018-Jun-14 06:30N 23°20' E 117°44'611.1
2018-Jun-14 06:00N 23°23' E 117°49'611.2
2018-Jun-14 05:30N 23°27' E 117°54'611.5
2018-Jun-14 05:00N 23°30' E 117°60'612.1
2018-Jun-14 04:28N 23°33' E 118°05'1211.4
2018-Jun-14 03:23N 23°44' E 118°12'411.4
2018-Jun-14 03:00N 23°48' E 118°14'611.3
2018-Jun-14 02:29N 23°53' E 118°16'1010.2
2018-Jun-14 01:29N 24°03' E 118°20'611.4
2018-Jun-14 00:57N 24°09' E 118°20'511.3
2018-Jun-14 00:30N 24°13' E 118°17'5 9.9
2018-Jun-14 00:00N 24°17' E 118°13'510.5
2018-Jun-13 23:30N 24°21' E 118°09'5 9.3
2018-Jun-13 23:00N 24°24' E 118°06'510.7
2018-Jun-13 22:30N 24°27' E 118°01'0 0.5
2018-Jun-13 21:55N 24°27' E 118°00'0 0.0
2018-Jun-13 21:28N 24°27' E 118°00'0 0.0
2018-Jun-13 20:58N 24°27' E 118°00'0 0.0
2018-Jun-13 20:28N 24°27' E 118°00'0 0.0
2018-Jun-13 19:58N 24°27' E 118°00'0 0.0
2018-Jun-13 19:28N 24°27' E 118°00'0 0.0
2018-Jun-13 18:58N 24°27' E 118°00'0 0.0
2018-Jun-13 18:28N 24°27' E 118°00'0 0.0
2018-Jun-13 17:58N 24°27' E 118°00'0 0.0
2018-Jun-13 17:25N 24°27' E 118°00'0 0.0
2018-Jun-13 16:58N 24°27' E 118°00'0 0.0
2018-Jun-13 16:28N 24°27' E 118°00'0 0.0
2018-Jun-13 15:55N 24°27' E 118°00'0 0.0
2018-Jun-13 15:28N 24°27' E 118°00'0 0.0
2018-Jun-13 14:58N 24°27' E 118°00'0 0.0
2018-Jun-13 14:28N 24°27' E 118°00'0 0.0
2018-Jun-13 13:58N 24°27' E 118°00'0 0.0
2018-Jun-13 13:28N 24°27' E 118°00'0 0.0
2018-Jun-13 12:58N 24°27' E 118°00'0 0.0
2018-Jun-13 12:28N 24°27' E 118°00'0 0.0
2018-Jun-13 11:58N 24°27' E 118°00'0 0.0
2018-Jun-13 11:30N 24°27' E 118°00'2 3.5
2018-Jun-13 11:00N 24°26' E 118°02'611.7
2018-Jun-13 10:30N 24°23' E 118°08'3 6.6
2018-Jun-13 10:00N 24°20' E 118°10'3 5.9
2018-Jun-13 09:30N 24°19' E 118°13'3 6.1
2018-Jun-13 08:59N 24°18' E 118°16'3 5.9
2018-Jun-13 08:30N 24°18' E 118°19'3 5.9
2018-Jun-13 08:00N 24°17' E 118°22'2 4.2
2018-Jun-13 07:30N 24°17' E 118°25'3 5.5
2018-Jun-13 07:00N 24°17' E 118°28'3 5.5
2018-Jun-13 06:29N 24°17' E 118°31'3 5.6
2018-Jun-13 06:00N 24°17' E 118°34'3 6.7
2018-Jun-13 05:30N 24°18' E 118°37'4 7.5
2018-Jun-13 05:00N 24°20' E 118°41'4 7.3
2018-Jun-13 04:30N 24°21' E 118°45'63 9.5
2018-Jun-12 21:53N 24°50' E 119°47'90 6.1
2018-Jun-12 07:07N 25°10' E 121°23'0 0.0
2018-Jun-12 06:46N 25°10' E 121°23'0 0.0
2018-Jun-12 05:01N 25°10' E 121°23'0 0.1
2018-Jun-12 04:58N 25°10' E 121°23'0 0.0
2018-Jun-11 18:28N 25°10' E 121°23'0 0.0
2018-Jun-11 16:43N 25°10' E 121°23'0 0.0
2018-Jun-11 16:28N 25°10' E 121°23'0 0.0
2018-Jun-11 15:58N 25°10' E 121°23'0 0.0
2018-Jun-11 15:25N 25°10' E 121°23'0 0.0
2018-Jun-11 14:58N 25°10' E 121°23'  
2018-Jun-04 12:00N 50°12' E 157°18'   280 / 151015.0 5.4 6.0 3.6

Dump ship's entire track history